• Join FlightAware (Why Join?)
  • Login
  • US Flag 
07:36AM EDT


 

Airport Tracker/Info


-or-


 

Live Flight TrackerFlight Track Log ✈ GUJ333 ✈ 14-Apr-2013 ✈ VABB / BOM - VIDP / DEL

Flight Track Log - Related Links

Times and Time Zones

All times are in EDT time to prevent confusion due to time zone crossing. See the GUJ333 flight status page for this flight to view local times or setup timezone preferences in your user account.

Time Position Orientation Groundspeed Altitude Reporting Facility
EDT Latitude Longitude Course Direction KTS MPH feet Rate Location/Type
09:01PM 21.0647 73.6987 21° North  Level Estimated
09:02PM 21.1544 73.7369 22° Northeast  Level Estimated
09:03PM 21.2441 73.7753 22° Northeast  Level Estimated
09:04PM 21.3338 73.8136 22° Northeast  Level Estimated
09:05PM 21.4235 73.8520 22° Northeast  Level Estimated
09:06PM 21.5132 73.8905 22° Northeast  Level Estimated
09:07PM 21.6029 73.9290 22° Northeast  Level Estimated
09:08PM 21.6926 73.9676 22° Northeast  Level Estimated
09:09PM 21.7822 74.0061 22° Northeast  Level Estimated
09:10PM 21.8719 74.0448 22° Northeast  Level Estimated
09:11PM 21.9615 74.0835 22° Northeast  Level Estimated
09:12PM 22.0512 74.1223 22° Northeast  Level Estimated
09:13PM 22.1408 74.1610 22° Northeast  Level Estimated
09:14PM 22.2304 74.1999 22° Northeast  Level Estimated
09:15PM 22.3200 74.2388 22° Northeast  Level Estimated
09:16PM 22.4096 74.2777 22° Northeast  Level Estimated
09:17PM 22.4992 74.3167 22° Northeast  Level Estimated
09:18PM 22.5888 74.3558 22° Northeast  Level Estimated
09:19PM 22.6784 74.3949 22° Northeast  Level Estimated
09:20PM 22.7679 74.4341 22° Northeast  Level Estimated
09:21PM 22.8575 74.4733 22° Northeast  Level Estimated
09:22PM 22.9470 74.5125 22° Northeast  Level Estimated
09:23PM 23.0366 74.5518 22° Northeast  Level Estimated
09:24PM 23.1261 74.5911 22° Northeast  Level Estimated
09:25PM 23.2156 74.6306 22° Northeast  Level Estimated
09:26PM 23.3051 74.6700 22° Northeast  Level Estimated
09:27PM 23.3946 74.7095 22° Northeast  Level Estimated
09:28PM 23.4841 74.7491 22° Northeast  Level Estimated
09:29PM 23.5735 74.7887 22° Northeast  Level Estimated
09:30PM 23.6630 74.8284 22° Northeast  Level Estimated
09:31PM 23.7524 74.8681 22° Northeast  Level Estimated
09:32PM 23.8419 74.9079 22° Northeast  Level Estimated
09:33PM 23.9313 74.9477 22° Northeast  Level Estimated
09:34PM 24.0207 74.9876 22° Northeast  Level Estimated
09:35PM 24.1101 75.0276 22° Northeast  Level Estimated
09:36PM 24.1995 75.0676 22° Northeast  Level Estimated
09:37PM 24.2889 75.1076 22° Northeast  Level Estimated
09:38PM 24.3783 75.1478 22° Northeast  Level Estimated
09:39PM 24.4677 75.1879 22° Northeast  Level Estimated
09:40PM 24.5570 75.2282 22° Northeast  Level Estimated
09:41PM 24.6464 75.2684 22° Northeast  Level Estimated
09:42PM 24.7357 75.3088 22° Northeast  Level Estimated
09:43PM 24.8251 75.3492 22° Northeast  Level Estimated
09:44PM 24.9144 75.3897 22° Northeast  Level Estimated
09:45PM 25.0037 75.4302 22° Northeast  Level Estimated
09:46PM 25.0930 75.4708 22° Northeast  Level Estimated
09:47PM 25.1822 75.5114 22° Northeast  Level Estimated
09:48PM 25.2715 75.5521 22° Northeast  Level Estimated
09:49PM 25.3608 75.5929 22° Northeast  Level Estimated
09:50PM 25.4500 75.6337 22° Northeast  Level Estimated
09:51PM 25.5393 75.6746 22° Northeast  Level Estimated
09:52PM 25.6285 75.7155 22° Northeast  Level Estimated
09:53PM 25.7177 75.7565 22° Northeast  Level Estimated
09:54PM 25.8069 75.7976 23° Northeast  Level Estimated
09:55PM 25.8961 75.8387 23° Northeast  Level Estimated
09:56PM 25.9853 75.8799 23° Northeast  Level Estimated
09:57PM 26.0745 75.9211 23° Northeast  Level Estimated
09:58PM 26.1636 75.9624 23° Northeast  Level Estimated
09:59PM 26.2528 76.0038 23° Northeast  Level Estimated
10:00PM 26.3419 76.0453 23° Northeast  Level Estimated
10:01PM 26.4310 76.0868 23° Northeast  Level Estimated
10:02PM 26.5201 76.1283 23° Northeast  Level Estimated
10:03PM 26.6092 76.1700 23° Northeast  Level Estimated
10:04PM 26.6983 76.2117 23° Northeast  Level Estimated
10:05PM 26.7874 76.2534 23° Northeast  Level Estimated
10:06PM 26.8764 76.2952 23° Northeast  Level Estimated
10:07PM 26.9655 76.3371 23° Northeast  Level Estimated
10:08PM 27.0545 76.3791 23° Northeast  Level Estimated
10:09PM 27.1436 76.4211 23° Northeast  Level Estimated
10:10PM 27.2326 76.4632 23° Northeast  Level Estimated
10:11PM 27.3216 76.5054 23° Northeast  Level Estimated
10:12PM 27.4106 76.5476 23° Northeast  Level Estimated
10:13PM 27.4995 76.5899 23° Northeast  Level Estimated
10:14PM 27.5885 76.6323 23° Northeast  Level Estimated
10:15PM 27.6774 76.6747 23° Northeast  Level Estimated
10:16PM 27.7664 76.7172 23° Northeast  Level Estimated
10:17PM 27.8553 76.7598 23° Northeast  Level Estimated
10:18PM 27.9442 76.8024 23° Northeast  Level Estimated
10:19PM 28.0331 76.8452 23° Northeast  Level Estimated
10:20PM 28.1220 76.8879 23° Northeast  Level Estimated
10:21PM 28.2108 76.9308 23° Northeast  Level Estimated
10:22PM 28.2997 76.9737 23° Northeast  Level Estimated
10:23PM 28.3885 77.0167 23° Northeast  Level Estimated
10:24PM 28.4774 77.0598 23° Northeast  Level Estimated
10:25PM 28.5662 77.1029 23° Northeast  Level Estimated
10:26PM 28.5665 77.1031 23° Northeast  Level Estimated
10:27PM 28.5665 77.1031 270° West  Level Estimated
10:28PM 28.5665 77.1031 270° West  Level Estimated